createdAt,value
2017-04-09T08:59:25.926Z,31.32
2017-04-09T09:00:37.179Z,29.72
2017-04-09T09:01:35.565Z,34.28
2017-04-09T09:02:33.938Z,30.22
2017-04-09T09:03:32.294Z,31.96
2017-04-09T09:04:30.637Z,34.56
2017-04-09T09:05:29.085Z,36.20
2017-04-09T09:06:28.178Z,33.00
2017-04-09T09:07:26.553Z,34.60
2017-04-09T09:08:25.153Z,32.24
2017-04-09T09:09:23.638Z,30.08
2017-04-09T09:10:22.156Z,32.48
2017-04-09T09:11:21.041Z,32.50
2017-04-09T09:12:19.439Z,32.02
2017-04-09T09:13:17.764Z,33.00
2017-04-09T09:14:16.073Z,33.10
2017-04-09T09:15:14.424Z,32.02
2017-04-09T09:16:12.739Z,32.60
2017-04-09T09:17:11.078Z,32.44
2017-04-09T09:18:09.423Z,32.94
2017-04-09T09:19:07.939Z,33.76
2017-04-09T09:20:06.552Z,30.28
2017-04-09T09:21:04.892Z,34.06
2017-04-09T09:22:03.264Z,31.74
2017-04-09T09:23:01.622Z,32.10
2017-04-09T09:23:59.954Z,32.80
2017-04-09T09:24:58.332Z,31.68
2017-04-09T09:25:56.919Z,32.16
2017-04-09T09:26:55.273Z,31.58
2017-04-09T09:27:53.673Z,32.16
2017-04-09T09:28:52.079Z,31.34
2017-04-09T09:29:50.399Z,32.44
2017-04-09T09:30:48.710Z,30.16
2017-04-09T09:31:47.109Z,31.04
2017-04-09T09:32:45.539Z,31.16
2017-04-09T09:33:43.897Z,31.26
2017-04-09T09:34:42.317Z,32.12
2017-04-09T09:35:40.640Z,31.52
2017-04-09T09:36:39.171Z,33.06
2017-04-09T09:37:37.681Z,30.96
2017-04-09T09:38:36.059Z,33.14
2017-04-09T09:39:35.169Z,31.56
2017-04-09T09:40:34.298Z,32.10
2017-04-09T09:41:32.653Z,33.14
2017-04-09T09:42:30.991Z,32.22
2017-04-09T09:43:29.443Z,35.34
2017-04-09T09:44:28.590Z,31.76
2017-04-09T09:45:27.010Z,29.76
2017-04-09T09:46:26.125Z,31.32
2017-04-09T09:47:24.558Z,31.50
2017-04-09T09:48:23.678Z,31.46
2017-04-09T09:49:22.131Z,31.74
2017-04-09T09:50:20.470Z,33.82
2017-04-09T09:51:18.777Z,32.66
2017-04-09T09:52:17.107Z,30.88
2017-04-09T09:53:16.243Z,30.76
2017-04-09T09:54:15.033Z,31.14
2017-04-09T09:55:13.500Z,32.60
2017-04-09T09:56:11.831Z,31.68
2017-04-09T09:57:10.291Z,32.94
2017-04-09T09:58:08.679Z,33.70
2017-04-09T09:59:07.037Z,33.18
2017-04-09T10:00:05.601Z,31.42
2017-04-09T10:01:03.978Z,31.42
2017-04-09T10:02:02.671Z,32.18
2017-04-09T10:03:00.968Z,32.94
2017-04-09T10:03:59.269Z,29.76
2017-04-09T10:04:57.582Z,32.70
2017-04-09T10:05:56.269Z,30.66
2017-04-09T10:06:54.930Z,32.08
2017-04-09T10:07:53.276Z,31.60
2017-04-09T10:08:51.582Z,32.26
2017-04-09T10:09:49.915Z,32.10
2017-04-09T10:10:48.252Z,31.50
2017-04-09T10:11:46.598Z,32.30
2017-04-09T10:12:45.001Z,31.24
2017-04-09T10:13:43.355Z,31.48
2017-04-09T10:14:41.678Z,31.08
2017-04-09T10:15:40.019Z,30.68
2017-04-09T10:16:38.367Z,30.92
2017-04-09T10:17:36.692Z,31.48
2017-04-09T10:18:35.107Z,29.88
2017-04-09T10:19:33.430Z,29.88
2017-04-09T10:20:31.789Z,28.20
2017-04-09T10:21:30.279Z,30.82
2017-04-09T10:22:28.802Z,31.32
2017-04-09T10:23:27.172Z,30.60
2017-04-09T10:24:25.603Z,30.86
2017-04-09T10:25:23.938Z,33.30
2017-04-09T10:26:22.266Z,32.72
2017-04-09T10:27:21.393Z,33.14
2017-04-09T10:28:19.801Z,31.96
2017-04-09T10:29:18.871Z,30.86
2017-04-09T10:30:17.309Z,31.78
2017-04-09T10:31:15.629Z,32.38
2017-04-09T10:32:13.918Z,31.34
2017-04-09T10:33:12.271Z,30.36
2017-04-09T10:34:11.387Z,31.48
2017-04-09T10:35:09.692Z,31.70
2017-04-09T10:36:08.200Z,32.84
2017-04-09T10:37:06.521Z,31.28
2017-04-09T10:38:04.839Z,32.74
2017-04-09T10:39:03.150Z,31.10
2017-04-09T10:40:01.479Z,30.64
2017-04-09T10:40:59.959Z,30.82
2017-04-09T10:41:58.642Z,29.92
2017-04-09T10:42:57.090Z,30.08
2017-04-09T10:43:55.467Z,31.26
2017-04-09T10:44:53.799Z,29.74
2017-04-09T10:45:52.902Z,32.12
2017-04-09T10:46:51.277Z,32.76
2017-04-09T10:47:49.678Z,32.60
2017-04-09T10:48:47.998Z,33.04
2017-04-09T10:49:46.318Z,32.28
2017-04-09T10:50:44.625Z,33.72
2017-04-09T10:51:42.969Z,30.52
2017-04-09T10:52:41.299Z,30.66
2017-04-09T10:53:39.702Z,31.10
2017-04-09T10:54:38.005Z,30.16
2017-04-09T10:55:37.139Z,31.54
2017-04-09T10:56:35.627Z,29.88
2017-04-09T10:57:34.017Z,33.04
2017-04-09T10:58:33.095Z,29.38
2017-04-09T10:59:31.476Z,32.90
2017-04-09T11:00:29.793Z,29.24
2017-04-09T11:01:28.125Z,31.64
2017-04-09T11:02:26.446Z,31.04
2017-04-09T11:03:24.754Z,29.64
2017-04-09T11:04:23.068Z,31.16
2017-04-09T11:05:22.105Z,30.48
2017-04-09T11:06:20.419Z,31.46
2017-04-09T11:07:18.764Z,30.80
2017-04-09T11:08:17.071Z,29.08
2017-04-09T11:09:15.382Z,31.18
2017-04-09T11:10:13.731Z,29.20
2017-04-09T11:11:12.244Z,30.50
2017-04-09T11:12:10.573Z,31.62
2017-04-09T11:13:08.983Z,30.54
2017-04-09T11:14:07.316Z,30.24
2017-04-09T11:15:05.685Z,31.50
2017-04-09T11:16:03.986Z,29.38
2017-04-09T11:17:03.278Z,29.88
2017-04-09T11:18:01.570Z,30.00
2017-04-09T11:19:00.135Z,30.94
2017-04-09T11:19:58.523Z,30.06
2017-04-09T11:20:57.618Z,30.57
2017-04-09T11:21:56.241Z,29.20
2017-04-09T11:22:55.531Z,31.36
2017-04-09T11:23:54.750Z,29.25
2017-04-09T11:24:54.578Z,30.27
2017-04-09T11:25:53.653Z,30.78
2017-04-09T11:26:51.958Z,28.42
2017-04-09T11:27:50.267Z,32.03
2017-04-09T11:28:48.783Z,29.68
2017-04-09T11:29:47.102Z,31.87
2017-04-09T11:30:45.418Z,29.54
2017-04-09T11:31:43.729Z,30.70
2017-04-09T11:32:43.562Z,31.87
2017-04-09T11:33:42.722Z,29.88
2017-04-09T11:35:44.932Z,33.23
2017-04-09T11:36:44.175Z,31.63
2017-04-09T11:37:42.628Z,32.02
2017-04-09T11:38:41.119Z,31.42
2017-04-09T11:39:39.562Z,34.72
2017-04-09T11:40:38.287Z,30.92
2017-04-09T11:41:38.350Z,32.18
2017-04-09T11:42:36.818Z,29.97
2017-04-09T11:43:35.143Z,35.03
2017-04-09T11:44:34.373Z,32.50
2017-04-09T11:45:32.741Z,32.60
2017-04-09T11:46:31.136Z,31.72
2017-04-09T11:47:29.509Z,31.50
2017-04-09T11:48:29.367Z,32.20
2017-04-09T11:49:27.745Z,32.40
2017-04-09T11:50:26.054Z,31.08
2017-04-09T11:51:24.367Z,33.48
2017-04-09T11:52:22.747Z,33.40
2017-04-09T11:53:21.447Z,33.50
2017-04-09T11:54:19.757Z,32.63
2017-04-09T11:55:18.085Z,32.07
2017-04-09T11:56:16.454Z,32.75
2017-04-09T11:57:14.767Z,30.98
2017-04-09T11:58:13.069Z,31.45
2017-04-09T11:59:11.467Z,33.60
2017-04-09T12:00:09.762Z,32.75
2017-04-09T12:01:08.070Z,34.35
2017-04-09T12:02:06.379Z,34.80
2017-04-09T12:03:04.770Z,32.95
2017-04-09T12:04:03.092Z,33.43
2017-04-09T12:05:01.466Z,31.58
2017-04-09T12:05:59.770Z,30.83
2017-04-09T12:06:58.063Z,31.07
2017-04-09T12:07:56.377Z,30.07
2017-04-09T12:08:54.690Z,32.50
2017-04-09T12:09:52.994Z,34.32
2017-04-09T12:10:52.327Z,31.55
2017-04-09T12:11:51.405Z,30.27
2017-04-09T12:12:49.712Z,33.62
2017-04-09T12:13:48.016Z,32.52
2017-04-09T12:14:46.449Z,31.27
2017-04-09T12:15:44.745Z,31.65
2017-04-09T12:16:43.138Z,30.87
2017-04-09T12:17:41.434Z,30.72
2017-04-09T12:18:40.763Z,32.48
2017-04-09T12:19:39.074Z,31.07
2017-04-09T12:20:37.388Z,30.92
2017-04-09T12:21:35.779Z,31.87
2017-04-09T12:22:34.268Z,32.50
2017-04-09T12:23:32.574Z,30.80
2017-04-09T12:24:30.906Z,32.33
2017-04-09T12:25:33.311Z,32.07
2017-04-09T12:26:31.608Z,31.17
2017-04-09T12:27:29.890Z,32.45
2017-04-09T12:28:28.291Z,31.73
2017-04-09T12:29:26.589Z,32.85
2017-04-09T12:30:24.894Z,31.30
2017-04-09T12:31:23.185Z,31.70
2017-04-09T12:32:21.481Z,32.68
2017-04-09T12:33:19.781Z,31.73
2017-04-09T12:34:19.543Z,31.65
2017-04-09T12:35:17.883Z,30.57
2017-04-09T12:36:16.271Z,30.58
2017-04-09T12:37:14.558Z,28.80
2017-04-09T12:38:12.899Z,28.92
2017-04-09T12:39:11.197Z,27.43
2017-04-09T12:40:09.590Z,29.93
2017-04-09T12:41:07.903Z,29.68
2017-04-09T12:42:06.213Z,32.05
2017-04-09T12:43:04.513Z,29.62
2017-04-09T12:44:02.885Z,30.23
2017-04-09T12:45:01.243Z,29.63
2017-04-09T12:45:59.642Z,19.02
2017-04-09T12:46:57.938Z,17.97
2017-04-09T12:47:56.235Z,18.83
2017-04-09T12:48:54.522Z,18.63
2017-04-09T12:49:52.839Z,20.03
2017-04-09T12:50:51.150Z,19.52
2017-04-09T12:51:49.542Z,20.18
2017-04-09T12:52:47.874Z,24.65
2017-04-09T12:53:46.186Z,22.87
2017-04-09T12:54:44.482Z,23.05
2017-04-09T12:55:42.787Z,22.23
2017-04-09T12:56:41.151Z,22.48
2017-04-09T12:57:39.660Z,21.53
2017-04-09T12:58:39.489Z,19.05
2017-04-09T12:59:37.853Z,20.28
2017-04-09T13:00:37.270Z,17.25
2017-04-09T13:01:35.582Z,18.00
2017-04-09T13:02:34.363Z,19.73
2017-04-09T13:03:33.636Z,18.82
2017-04-09T13:04:32.046Z,19.82
2017-04-09T13:05:30.335Z,19.40
2017-04-09T13:06:28.649Z,20.08
2017-04-09T13:07:26.928Z,21.33
2017-04-09T13:08:25.226Z,21.10
2017-04-09T13:09:23.627Z,21.43
2017-04-09T13:10:21.949Z,19.08
2017-04-09T13:11:20.241Z,22.42
2017-04-09T13:12:18.550Z,21.03
2017-04-09T13:13:16.910Z,22.90
2017-04-09T13:14:15.199Z,22.02
2017-04-09T13:15:13.666Z,21.95
2017-04-09T13:16:12.001Z,23.20
2017-04-09T13:17:10.335Z,21.90
2017-04-09T13:18:08.630Z,22.98
2017-04-09T13:19:06.910Z,24.73
2017-04-09T13:20:05.195Z,26.52
2017-04-09T13:21:04.289Z,25.90
2017-04-09T13:22:02.594Z,25.83
2017-04-09T13:23:00.881Z,25.77
2017-04-09T13:23:59.205Z,26.27
2017-04-09T13:24:57.526Z,25.75
2017-04-09T13:25:55.877Z,28.33
2017-04-09T13:26:54.252Z,27.27
2017-04-09T13:27:52.638Z,28.83
2017-04-09T13:28:50.978Z,25.83
2017-04-09T13:29:49.278Z,25.32
2017-04-09T13:30:47.596Z,27.17
2017-04-09T13:31:45.918Z,24.72
2017-04-09T13:32:44.307Z,24.15
2017-04-09T13:33:42.678Z,23.87
2017-04-09T13:34:40.999Z,22.08
2017-04-09T13:35:39.293Z,23.58
2017-04-09T13:36:37.595Z,21.42
2017-04-09T13:37:35.905Z,21.70
2017-04-09T13:38:34.304Z,20.73
2017-04-09T13:39:32.616Z,23.33
2017-04-09T13:40:30.950Z,22.12
2017-04-09T13:41:29.234Z,20.63
2017-04-09T13:42:27.538Z,20.10
2017-04-09T13:43:25.842Z,20.95
2017-04-09T13:44:24.202Z,22.97
2017-04-09T13:45:22.501Z,20.60
2017-04-09T13:46:20.809Z,18.10
2017-04-09T13:47:19.118Z,17.90
2017-04-09T13:48:17.421Z,16.88
2017-04-09T13:49:15.717Z,13.52
2017-04-09T13:50:14.618Z,12.07
2017-04-09T13:51:12.925Z,11.68
2017-04-09T13:52:11.229Z,10.37
2017-04-09T13:53:09.539Z,9.65
2017-04-09T13:54:07.843Z,10.35
2017-04-09T13:55:06.147Z,11.82
2017-04-09T13:56:04.555Z,12.12
2017-04-09T13:57:02.959Z,11.88
2017-04-09T13:58:01.331Z,11.95
2017-04-09T13:58:59.623Z,10.98
2017-04-09T13:59:57.966Z,11.55
2017-04-09T14:00:56.293Z,11.83
2017-04-09T14:01:54.660Z,10.98
2017-04-09T14:02:52.966Z,13.18
2017-04-09T14:03:51.278Z,11.23
2017-04-09T14:04:49.571Z,13.97
2017-04-09T14:05:47.858Z,13.30
2017-04-09T14:06:46.350Z,14.88
2017-04-09T14:07:44.735Z,14.87
2017-04-09T14:08:43.118Z,13.05
2017-04-09T14:09:41.483Z,13.33
2017-04-09T14:10:39.802Z,16.07
2017-04-09T14:11:38.130Z,15.82
2017-04-09T14:12:36.458Z,14.10
2017-04-09T14:13:34.831Z,14.02
2017-04-09T14:14:33.182Z,15.08
2017-04-09T14:15:31.464Z,15.83
2017-04-09T14:16:29.808Z,15.72
2017-04-09T14:17:28.130Z,17.45
2017-04-09T14:18:26.458Z,17.43
2017-04-09T14:19:24.899Z,16.77
2017-04-09T14:20:23.222Z,18.17
2017-04-09T14:21:21.526Z,16.83
2017-04-09T14:22:19.816Z,18.22
2017-04-09T14:23:18.147Z,17.65
2017-04-09T14:24:16.503Z,19.65
2017-04-09T14:25:14.901Z,18.77
2017-04-09T14:26:13.426Z,18.28
2017-04-09T14:27:11.715Z,17.53
2017-04-09T14:28:10.052Z,15.33
2017-04-09T14:29:08.415Z,17.50
2017-04-09T14:30:06.738Z,17.75
2017-04-09T14:31:05.253Z,16.90
2017-04-09T14:32:04.375Z,17.10
2017-04-09T14:33:04.252Z,16.03
2017-04-09T14:34:03.349Z,15.75
2017-04-09T14:35:02.558Z,17.15
2017-04-09T14:36:00.930Z,17.37
2017-04-09T14:36:59.363Z,19.52
2017-04-09T14:37:57.706Z,14.93
2017-04-09T14:38:56.046Z,16.53
2017-04-09T14:39:54.377Z,14.98
2017-04-09T14:40:52.745Z,15.67
2017-04-09T14:41:51.142Z,14.67
2017-04-09T14:42:49.583Z,17.95
2017-04-09T14:43:48.862Z,14.47
2017-04-09T14:44:47.169Z,15.65
2017-04-09T17:26:29.198Z,15.44
2017-04-09T17:27:27.509Z,15.12
2017-04-09T17:28:25.857Z,15.60
2017-04-09T17:29:24.190Z,14.73
2017-04-09T17:30:22.522Z,14.12
2017-04-09T17:31:21.627Z,13.65
2017-04-09T17:32:19.958Z,14.40
2017-04-09T17:33:18.286Z,15.30
2017-04-09T17:34:17.426Z,15.67
2017-04-09T17:35:15.781Z,14.17
2017-04-09T17:36:14.190Z,14.53
2017-04-09T17:37:12.547Z,14.88
2017-04-09T17:38:10.869Z,14.33
2017-04-09T17:39:09.238Z,13.88
2017-04-09T17:40:08.345Z,13.95
2017-04-09T17:41:06.658Z,15.14
2017-04-09T17:42:05.748Z,14.06
2017-04-09T17:43:05.592Z,15.77
2017-04-09T17:44:03.923Z,14.90
2017-04-09T17:45:03.127Z,15.26
2017-04-09T17:46:01.446Z,14.64
2017-04-09T17:46:59.786Z,15.40
2017-04-09T17:47:58.155Z,14.16
2017-04-09T17:48:58.023Z,15.46
2017-04-09T17:49:57.843Z,15.22
2017-04-09T17:50:56.189Z,13.58
2017-04-09T17:51:55.258Z,14.46
2017-04-09T17:52:55.077Z,16.26
2017-04-09T17:53:54.173Z,16.50
2017-04-09T17:54:53.294Z,14.22
2017-04-09T17:55:51.618Z,14.88
2017-04-09T17:56:50.697Z,15.08
2017-04-09T18:09:54.512Z,12.72
2017-04-09T18:10:53.093Z,14.08
2017-04-09T18:11:51.590Z,15.32
2017-04-09T18:12:50.175Z,13.76
2017-04-09T18:13:48.588Z,15.24
2017-04-09T18:14:46.972Z,13.96
2017-04-09T18:15:45.508Z,14.26
2017-04-09T18:16:44.051Z,14.00
2017-04-09T18:17:42.486Z,16.48
2017-04-09T18:18:40.973Z,14.52
2017-04-09T18:19:39.629Z,16.48
2017-04-09T18:20:38.066Z,14.80
2017-04-09T18:21:38.945Z,16.28
2017-04-09T18:22:37.440Z,13.42
2017-04-09T18:23:36.780Z,15.44
2017-04-09T18:24:35.135Z,14.56
2017-04-09T18:25:33.536Z,14.26
2017-04-09T18:26:32.718Z,16.48
2017-04-09T18:27:31.063Z,15.24
2017-04-09T18:28:29.392Z,15.92
2017-04-09T18:29:27.730Z,15.72
2017-04-09T18:30:26.038Z,17.38
2017-04-09T18:31:24.429Z,15.70
2017-04-09T18:32:23.354Z,15.60
2017-04-09T18:33:21.965Z,16.00
2017-04-09T18:34:20.415Z,14.30
2017-04-09T18:35:18.791Z,15.12
2017-04-09T18:36:17.129Z,15.84
2017-04-09T18:37:16.217Z,15.68
2017-04-09T18:38:14.535Z,15.52
2017-04-09T18:39:12.890Z,15.78
2017-04-09T18:40:11.250Z,15.28
2017-04-09T18:41:09.579Z,16.14
2017-04-09T18:42:07.921Z,15.30
2017-04-09T18:43:06.355Z,15.90
2017-04-09T18:44:04.652Z,14.72
2017-04-09T18:45:02.972Z,16.86
2017-04-09T18:46:01.301Z,15.64
2017-04-09T18:46:59.622Z,16.52
2017-04-09T18:47:57.930Z,16.10
2017-04-09T18:48:56.446Z,15.14
2017-04-09T18:49:54.778Z,15.84
2017-04-09T18:50:53.113Z,15.06
2017-04-09T18:51:51.435Z,15.18
2017-04-09T18:52:49.745Z,15.46
2017-04-09T18:53:48.058Z,15.84
2017-04-09T18:54:46.803Z,15.32
2017-04-09T18:55:45.117Z,15.42
2017-04-09T18:56:43.511Z,15.76
2017-04-09T18:57:41.825Z,14.58
2017-04-09T18:58:40.794Z,15.14
2017-04-09T18:59:39.109Z,15.90
2017-04-09T19:00:37.441Z,16.78
2017-04-09T19:01:35.758Z,14.38
2017-04-09T19:02:34.183Z,14.26
2017-04-09T19:03:32.527Z,16.52
2017-04-09T19:04:30.840Z,15.38
2017-04-09T19:05:29.166Z,15.54
2017-04-09T19:06:27.491Z,16.48
2017-04-09T19:07:25.799Z,17.12
2017-04-09T19:08:24.178Z,15.62
2017-04-09T19:09:22.591Z,15.34
2017-04-09T19:10:21.024Z,15.00
2017-04-09T19:11:19.386Z,16.34
2017-04-09T19:12:17.715Z,15.50
2017-04-09T19:13:16.071Z,15.56
2017-04-09T19:14:14.507Z,15.34
2017-04-09T19:15:12.867Z,16.06
2017-04-09T19:16:11.179Z,16.48
2017-04-09T19:17:09.493Z,15.48
2017-04-09T19:18:07.846Z,16.12
2017-04-09T19:19:06.193Z,17.08
2017-04-09T19:20:04.603Z,16.02
2017-04-09T19:21:02.966Z,14.72
2017-04-09T19:22:01.335Z,14.94
2017-04-09T19:22:59.650Z,16.12
2017-04-09T19:23:57.975Z,15.92
2017-04-09T19:24:56.282Z,16.50
2017-04-09T19:25:54.713Z,17.72
2017-04-09T19:26:53.044Z,16.16
2017-04-09T19:37:31.549Z,14.83
2017-04-09T19:38:29.944Z,16.62
2017-04-09T19:39:28.335Z,16.46
2017-04-09T19:40:26.677Z,17.28
2017-04-09T19:41:25.234Z,16.88
2017-04-09T19:42:23.585Z,15.97
2017-04-09T19:43:22.015Z,15.86
2017-04-09T19:44:20.351Z,17.93
2017-04-09T19:45:18.754Z,17.66
2017-04-09T19:46:17.150Z,18.00
2017-04-09T19:47:15.469Z,17.10
2017-04-09T19:48:13.786Z,17.76
2017-04-09T19:49:12.203Z,16.85
2017-04-09T19:50:10.767Z,16.56
2017-04-09T19:51:09.484Z,16.70
2017-04-09T19:52:07.868Z,17.20
2017-04-09T19:53:06.223Z,16.85
2017-04-09T19:54:04.595Z,16.18
2017-04-09T19:55:03.030Z,17.17
2017-04-09T19:56:01.345Z,17.43
2017-04-09T19:56:59.665Z,18.02
2017-04-09T19:57:58.470Z,16.57
2017-04-09T19:58:56.894Z,17.92
2017-04-09T19:59:55.697Z,16.72
2017-04-09T20:00:54.308Z,17.27
2017-04-09T20:01:52.630Z,18.85
2017-04-09T20:02:51.346Z,17.68
2017-04-09T20:03:49.710Z,16.88
2017-04-09T20:04:48.034Z,17.25
2017-04-09T20:05:46.398Z,18.70
2017-04-09T20:06:44.795Z,16.55
2017-04-09T20:07:43.112Z,18.13
2017-04-09T20:08:41.439Z,17.68
2017-04-09T20:09:39.764Z,15.53
2017-04-09T20:10:38.089Z,17.85
2017-04-09T20:11:36.574Z,16.95
2017-04-09T20:12:34.978Z,18.23
2017-04-09T20:13:33.300Z,16.88
2017-04-09T20:14:31.615Z,16.85
2017-04-09T20:15:29.956Z,17.05
2017-04-09T20:16:28.262Z,15.97
2017-04-09T20:17:26.635Z,16.78
2017-04-09T20:18:25.021Z,18.45
2017-04-09T20:19:23.341Z,18.80
2017-04-09T20:20:21.918Z,17.57
2017-04-09T20:21:20.241Z,17.68
2017-04-09T20:22:18.587Z,16.40
2017-04-09T20:23:16.963Z,16.87
2017-04-09T20:24:15.353Z,17.48
2017-04-09T20:25:13.659Z,17.80
2017-04-09T20:26:11.989Z,17.43
2017-04-09T20:27:10.302Z,15.83
2017-04-09T20:28:08.646Z,18.38
2017-04-09T20:29:06.974Z,18.53
2017-04-09T20:30:05.358Z,16.87
2017-04-09T20:31:03.686Z,17.25
2017-04-09T20:32:01.997Z,17.28
2017-04-09T20:33:00.404Z,17.38
2017-04-09T20:33:58.710Z,17.23
2017-04-09T20:34:57.043Z,16.13
2017-04-09T20:35:55.455Z,16.08
2017-04-09T20:36:53.886Z,17.07
2017-04-09T20:37:52.287Z,16.75
2017-04-09T20:38:51.235Z,16.45
2017-04-09T20:39:49.603Z,17.22
2017-04-09T20:40:47.926Z,17.43
2017-04-09T20:41:46.319Z,16.58
2017-04-09T20:42:44.618Z,16.92
2017-04-09T20:43:42.990Z,15.93
2017-04-09T20:44:41.302Z,17.58
2017-04-09T20:45:39.656Z,16.30
2017-04-09T20:46:37.934Z,19.40
2017-04-09T20:47:36.347Z,16.17
2017-04-09T20:48:34.706Z,16.67
2017-04-09T20:49:33.029Z,15.73
2017-04-09T20:50:31.341Z,16.37
2017-04-09T20:51:29.693Z,16.92
2017-04-09T20:52:28.777Z,17.17
2017-04-09T20:53:27.198Z,16.15
2017-04-09T20:54:25.607Z,15.80
2017-04-09T20:55:23.938Z,16.13
2017-04-09T20:56:22.540Z,17.02
2017-04-09T20:57:20.833Z,16.23
2017-04-09T20:58:19.158Z,15.35
2017-04-09T20:59:17.593Z,16.48
2017-04-09T21:00:15.895Z,17.28
2017-04-09T21:01:14.217Z,16.07
2017-04-09T21:02:12.536Z,16.72
2017-04-09T21:03:10.843Z,17.17
2017-04-09T21:04:09.181Z,17.25
2017-04-09T21:05:07.617Z,16.32
2017-04-09T21:06:05.956Z,15.73
2017-04-09T21:07:04.294Z,17.60
2017-04-09T21:08:02.620Z,15.47
2017-04-09T21:09:00.967Z,15.62
2017-04-09T21:09:59.284Z,16.87
2017-04-09T21:10:57.686Z,16.22
2017-04-09T21:11:56.017Z,16.25
2017-04-09T21:12:54.349Z,16.62
2017-04-09T21:13:52.650Z,17.65
2017-04-09T21:14:50.959Z,16.63
2017-04-09T21:15:49.277Z,16.78
2017-04-09T21:16:47.676Z,16.43
2017-04-09T21:17:45.999Z,16.07
2017-04-09T21:18:44.309Z,16.28
2017-04-09T21:19:42.630Z,14.85
2017-04-09T21:20:40.929Z,15.55
2017-04-09T21:21:39.259Z,15.55
2017-04-09T21:22:37.653Z,15.20
2017-04-09T21:23:36.374Z,15.25
2017-04-09T21:24:34.722Z,16.10
2017-04-09T21:25:33.051Z,15.95
2017-04-09T21:26:31.353Z,16.00
2017-04-09T21:27:29.692Z,15.85
2017-04-09T21:28:28.070Z,14.85
2017-04-09T21:29:26.368Z,16.97
2017-04-09T21:30:24.691Z,15.07
2017-04-09T21:31:22.995Z,15.00
2017-04-09T21:32:21.387Z,17.12
2017-04-09T21:33:19.777Z,15.63
2017-04-09T21:34:18.191Z,14.10
2017-04-09T21:35:16.494Z,15.17
2017-04-09T21:36:14.810Z,14.47
2017-04-09T21:37:13.203Z,14.60
2017-04-09T21:38:11.515Z,15.68
2017-04-09T21:39:09.900Z,14.33
2017-04-09T21:40:08.408Z,14.72
2017-04-09T21:41:06.837Z,12.93
2017-04-09T21:42:05.178Z,15.57
2017-04-09T21:43:03.506Z,13.43
2017-04-09T21:44:01.825Z,15.25
2017-04-09T21:45:00.154Z,14.42
2017-04-09T21:45:58.552Z,13.38
2017-04-09T21:46:56.859Z,13.28
2017-04-09T21:47:55.402Z,12.62
2017-04-09T21:48:53.730Z,13.45
2017-04-09T21:49:52.059Z,14.38
2017-04-09T21:50:50.366Z,15.45
2017-04-09T21:51:48.768Z,12.47
2017-04-09T21:52:47.106Z,15.13
2017-04-09T21:53:45.414Z,13.18
2017-04-09T21:54:43.723Z,15.20
2017-04-09T21:55:42.027Z,14.82
2017-04-09T21:56:40.354Z,12.65
2017-04-09T21:57:38.785Z,14.28
2017-04-09T21:58:37.094Z,13.48
2017-04-09T21:59:35.391Z,12.67
2017-04-09T22:00:33.719Z,12.78
2017-04-09T22:01:32.044Z,12.62
2017-04-09T22:02:30.389Z,11.85
2017-04-09T22:03:28.786Z,13.67
2017-04-09T22:04:27.114Z,11.87
2017-04-09T22:05:25.435Z,12.38
2017-04-09T22:06:23.793Z,13.65
2017-04-09T22:07:22.132Z,12.03
2017-04-09T22:08:20.468Z,12.47
2017-04-09T22:09:18.915Z,11.85
2017-04-09T22:10:17.228Z,12.68
2017-04-09T22:11:15.546Z,12.85
2017-04-09T22:12:13.877Z,11.52
2017-04-09T22:13:12.185Z,12.92
2017-04-09T22:14:12.950Z,11.33
2017-04-09T22:15:11.321Z,12.87
2017-04-09T22:16:09.638Z,13.17
2017-04-09T22:17:07.943Z,12.05
2017-04-09T22:18:06.349Z,12.33
2017-04-09T22:19:04.722Z,12.38
2017-04-09T22:20:03.018Z,11.92
2017-04-09T22:21:01.402Z,11.25
2017-04-09T22:21:59.701Z,11.62
2017-04-09T22:22:58.006Z,11.77
2017-04-09T22:23:56.320Z,11.30
2017-04-09T22:24:54.642Z,12.25
2017-04-09T22:25:53.006Z,12.25
2017-04-09T22:26:51.410Z,12.77
2017-04-09T22:27:49.788Z,13.33
2017-04-09T22:28:48.111Z,12.62
2017-04-09T22:29:46.417Z,13.62
2017-04-09T22:30:44.775Z,13.02
2017-04-09T22:31:43.396Z,14.77
2017-04-09T22:32:41.706Z,11.45
2017-04-09T22:33:40.015Z,13.60
2017-04-09T22:34:38.387Z,13.02
2017-04-09T22:35:36.707Z,12.47
2017-04-09T22:36:35.001Z,12.80
2017-04-09T22:37:33.563Z,12.13
2017-04-09T22:38:31.924Z,10.67
2017-04-09T22:39:30.315Z,12.97
2017-04-09T22:40:28.629Z,11.40
2017-04-09T22:41:26.953Z,12.15
2017-04-09T22:42:25.288Z,11.77
2017-04-09T22:43:23.685Z,11.30
2017-04-09T22:44:21.983Z,11.50
2017-04-09T22:45:20.280Z,11.83
2017-04-09T22:46:18.584Z,11.53
2017-04-09T22:47:16.904Z,13.32
2017-04-09T22:48:15.233Z,12.53
2017-04-09T22:49:13.634Z,10.75
2017-04-09T22:50:12.002Z,11.80
2017-04-09T22:51:10.374Z,12.85
2017-04-09T22:52:08.694Z,11.37
2017-04-09T22:53:06.995Z,12.42
2017-04-09T22:54:05.300Z,10.05
2017-04-09T22:55:03.680Z,10.58
2017-04-09T22:56:01.996Z,10.87
2017-04-09T22:57:00.350Z,10.70
2017-04-09T22:57:58.642Z,10.98
2017-04-09T22:58:56.954Z,10.73
2017-04-09T22:59:55.315Z,10.07
2017-04-09T23:00:53.778Z,10.03
2017-04-09T23:01:52.072Z,10.72
2017-04-09T23:02:50.386Z,10.13
2017-04-09T23:03:48.704Z,11.55
2017-04-09T23:04:46.998Z,9.83
2017-04-09T23:05:45.347Z,11.10
2017-04-09T23:06:43.748Z,10.63
2017-04-09T23:07:42.139Z,10.28
2017-04-09T23:08:40.461Z,11.05
2017-04-09T23:09:38.805Z,10.30
2017-04-09T23:10:37.098Z,9.95
2017-04-09T23:11:35.417Z,9.92
2017-04-09T23:12:33.930Z,9.75
2017-04-09T23:13:32.242Z,9.72
2017-04-09T23:14:30.531Z,10.63
2017-04-09T23:15:28.848Z,9.70
2017-04-09T23:16:27.205Z,10.18
2017-04-09T23:17:25.522Z,9.73
2017-04-09T23:18:23.931Z,9.93
2017-04-09T23:19:22.238Z,11.23
2017-04-09T23:20:20.771Z,10.13
2017-04-09T23:21:19.481Z,9.82
2017-04-09T23:22:17.813Z,10.65
2017-04-09T23:23:16.111Z,9.32
2017-04-09T23:24:14.967Z,10.18
2017-04-09T23:25:13.274Z,9.52
2017-04-09T23:26:11.745Z,9.63
2017-04-09T23:27:10.049Z,10.92
2017-04-09T23:28:08.358Z,10.32
2017-04-09T23:29:06.696Z,10.27
2017-04-09T23:30:05.077Z,10.97
2017-04-09T23:31:03.407Z,10.68
2017-04-09T23:32:01.752Z,9.10
2017-04-09T23:33:00.103Z,10.85
2017-04-09T23:33:58.418Z,10.25
2017-04-09T23:34:56.769Z,9.67
2017-04-09T23:35:55.206Z,9.95
2017-04-09T23:36:53.499Z,9.35
2017-04-09T23:37:51.846Z,10.27
2017-04-09T23:38:50.166Z,9.57
2017-04-09T23:39:48.466Z,10.50
2017-04-09T23:40:46.743Z,9.85
2017-04-09T23:41:45.565Z,11.50
2017-04-09T23:42:43.863Z,10.48
2017-04-09T23:43:42.227Z,10.60
2017-04-09T23:44:40.574Z,10.57
2017-04-09T23:45:38.861Z,10.77
2017-04-09T23:46:37.153Z,10.27
2017-04-09T23:47:35.555Z,10.63
2017-04-09T23:48:33.885Z,10.82
2017-04-09T23:49:32.214Z,9.35
2017-04-09T23:50:30.515Z,9.53
2017-04-09T23:51:28.831Z,11.40
2017-04-09T23:52:27.132Z,11.42
2017-04-09T23:53:25.662Z,11.58
2017-04-09T23:54:24.029Z,11.85
2017-04-09T23:55:22.426Z,11.08
2017-04-09T23:56:20.993Z,9.98
2017-04-09T23:57:19.314Z,11.58
2017-04-09T23:58:17.629Z,10.73
2017-04-09T23:59:16.070Z,11.12
